sensor_id;sensor_type;location;lat;lon;timestamp;pressure;altitude;pressure_sealevel;temperature;humidity
18436;BME280;9346;52.006;4.720;2023-07-29T00:01:47;100669.44;;;18.94;100.00
18436;BME280;9346;52.006;4.720;2023-07-29T00:04:14;100669.44;;;18.94;100.00
18436;BME280;9346;52.006;4.720;2023-07-29T00:06:42;100667.78;;;18.93;100.00
18436;BME280;9346;52.006;4.720;2023-07-29T00:09:09;100656.97;;;18.91;100.00
18436;BME280;9346;52.006;4.720;2023-07-29T00:11:36;100664.53;;;18.91;100.00
18436;BME280;9346;52.006;4.720;2023-07-29T00:14:05;100649.28;;;18.88;100.00
18436;BME280;9346;52.006;4.720;2023-07-29T00:16:32;100661.22;;;18.89;100.00
18436;BME280;9346;52.006;4.720;2023-07-29T00:18:58;100647.28;;;18.89;100.00
18436;BME280;9346;52.006;4.720;2023-07-29T00:21:25;100643.84;;;18.83;100.00
18436;BME280;9346;52.006;4.720;2023-07-29T00:23:53;100646.03;;;18.78;100.00
18436;BME280;9346;52.006;4.720;2023-07-29T00:26:22;100653.09;;;18.75;100.00
18436;BME280;9346;52.006;4.720;2023-07-29T00:28:51;100653.75;;;18.72;100.00
18436;BME280;9346;52.006;4.720;2023-07-29T00:31:20;100649.31;;;18.71;100.00
18436;BME280;9346;52.006;4.720;2023-07-29T00:33:47;100646.84;;;18.70;100.00
18436;BME280;9346;52.006;4.720;2023-07-29T00:36:14;100649.84;;;18.65;100.00
18436;BME280;9346;52.006;4.720;2023-07-29T00:38:41;100654.09;;;18.62;100.00
18436;BME280;9346;52.006;4.720;2023-07-29T00:41:08;100655.25;;;18.61;100.00
18436;BME280;9346;52.006;4.720;2023-07-29T00:43:38;100652.78;;;18.60;100.00
18436;BME280;9346;52.006;4.720;2023-07-29T00:46:07;100647.22;;;18.60;100.00
18436;BME280;9346;52.006;4.720;2023-07-29T00:48:36;100650.00;;;18.60;100.00
18436;BME280;9346;52.006;4.720;2023-07-29T00:51:04;100648.88;;;18.61;100.00
18436;BME280;9346;52.006;4.720;2023-07-29T00:53:31;100648.88;;;18.61;100.00
18436;BME280;9346;52.006;4.720;2023-07-29T00:55:58;100647.22;;;18.60;100.00
18436;BME280;9346;52.006;4.720;2023-07-29T00:58:26;100645.56;;;18.59;100.00
18436;BME280;9346;52.006;4.720;2023-07-29T01:00:53;100649.53;;;18.58;100.00
18436;BME280;9346;52.006;4.720;2023-07-29T01:03:21;100636.38;;;18.58;100.00
18436;BME280;9346;52.006;4.720;2023-07-29T01:06:01;100633.25;;;18.60;100.00
18436;BME280;9346;52.006;4.720;2023-07-29T01:08:35;100637.22;;;18.59;100.00
18436;BME280;9346;52.006;4.720;2023-07-29T01:11:14;100634.56;;;18.62;100.00
18436;BME280;9346;52.006;4.720;2023-07-29T01:13:49;100636.88;;;18.60;100.00
18436;BME280;9346;52.006;4.720;2023-07-29T01:16:21;100627.34;;;18.61;100.00
18436;BME280;9346;52.006;4.720;2023-07-29T01:18:52;100639.34;;;18.62;100.00
18436;BME280;9346;52.006;4.720;2023-07-29T01:21:23;100628.84;;;18.59;100.00
18436;BME280;9346;52.006;4.720;2023-07-29T01:23:58;100640.00;;;18.59;100.00
18436;BME280;9346;52.006;4.720;2023-07-29T01:26:25;100632.78;;;18.58;100.00
18436;BME280;9346;52.006;4.720;2023-07-29T01:28:54;100635.91;;;18.56;100.00
18436;BME280;9346;52.006;4.720;2023-07-29T01:31:29;100632.28;;;18.56;100.00
18436;BME280;9346;52.006;4.720;2023-07-29T01:33:59;100625.09;;;18.55;100.00
18436;BME280;9346;52.006;4.720;2023-07-29T01:36:31;100620.63;;;18.54;100.00
18436;BME280;9346;52.006;4.720;2023-07-29T01:39:02;100624.91;;;18.51;100.00
18436;BME280;9346;52.006;4.720;2023-07-29T01:41:30;100628.38;;;18.48;100.00
18436;BME280;9346;52.006;4.720;2023-07-29T01:43:57;100627.53;;;18.48;100.00
18436;BME280;9346;52.006;4.720;2023-07-29T01:46:25;100624.75;;;18.48;100.00
18436;BME280;9346;52.006;4.720;2023-07-29T01:48:52;100627.53;;;18.48;100.00
18436;BME280;9346;52.006;4.720;2023-07-29T01:51:19;100621.50;;;18.46;100.00
18436;BME280;9346;52.006;4.720;2023-07-29T01:53:47;100611.50;;;18.45;100.00
18436;BME280;9346;52.006;4.720;2023-07-29T01:56:16;100617.06;;;18.45;100.00
18436;BME280;9346;52.006;4.720;2023-07-29T01:58:43;100611.50;;;18.45;100.00
18436;BME280;9346;52.006;4.720;2023-07-29T02:01:10;100605.09;;;18.44;100.00
18436;BME280;9346;52.006;4.720;2023-07-29T02:03:37;100606.59;;;18.42;100.00
18436;BME280;9346;52.006;4.720;2023-07-29T02:06:05;100600.50;;;18.40;100.00
18436;BME280;9346;52.006;4.720;2023-07-29T02:08:32;100594.59;;;18.41;100.00
18436;BME280;9346;52.006;4.720;2023-07-29T02:10:59;100604.91;;;18.41;100.00
18436;BME280;9346;52.006;4.720;2023-07-29T02:13:28;100597.72;;;18.40;100.00
18436;BME280;9346;52.006;4.720;2023-07-29T02:15:55;100607.25;;;18.39;100.00
18436;BME280;9346;52.006;4.720;2023-07-29T02:18:21;100602.28;;;18.36;100.00
18436;BME280;9346;52.006;4.720;2023-07-29T02:20:48;100600.63;;;18.35;100.00
18436;BME280;9346;52.006;4.720;2023-07-29T02:23:15;100586.41;;;18.36;100.00
18436;BME280;9346;52.006;4.720;2023-07-29T02:25:43;100595.88;;;18.35;100.00
18436;BME280;9346;52.006;4.720;2023-07-29T02:28:10;100587.38;;;18.32;100.00
18436;BME280;9346;52.006;4.720;2023-07-29T02:30:41;100582.28;;;18.34;100.00
18436;BME280;9346;52.006;4.720;2023-07-29T02:33:09;100577.34;;;18.31;100.00
18436;BME280;9346;52.006;4.720;2023-07-29T02:35:36;100578.19;;;18.31;100.00
18436;BME280;9346;52.006;4.720;2023-07-29T02:38:03;100572.28;;;18.33;100.00
18436;BME280;9346;52.006;4.720;2023-07-29T02:40:30;100566.22;;;18.31;100.00
18436;BME280;9346;52.006;4.720;2023-07-29T02:42:57;100557.03;;;18.30;100.00
18436;BME280;9346;52.006;4.720;2023-07-29T02:45:24;100562.13;;;18.28;100.00
18436;BME280;9346;52.006;4.720;2023-07-29T02:47:53;100551.81;;;18.29;100.00
18436;BME280;9346;52.006;4.720;2023-07-29T02:50:20;100544.91;;;18.26;100.00
18436;BME280;9346;52.006;4.720;2023-07-29T02:52:47;100534.25;;;18.28;100.00
18436;BME280;9346;52.006;4.720;2023-07-29T02:55:14;100538.19;;;18.27;100.00
18436;BME280;9346;52.006;4.720;2023-07-29T02:57:41;100543.59;;;18.24;100.00
18436;BME280;9346;52.006;4.720;2023-07-29T03:00:10;100543.59;;;18.24;100.00
18436;BME280;9346;52.006;4.720;2023-07-29T03:02:37;100543.09;;;18.22;100.00
18436;BME280;9346;52.006;4.720;2023-07-29T03:05:07;100553.28;;;18.18;100.00
18436;BME280;9346;52.006;4.720;2023-07-29T03:07:35;100562.81;;;18.17;100.00
18436;BME280;9346;52.006;4.720;2023-07-29T03:10:02;100563.13;;;18.15;100.00
18436;BME280;9346;52.006;4.720;2023-07-29T03:12:29;100562.31;;;18.15;100.00
18436;BME280;9346;52.006;4.720;2023-07-29T03:14:56;100560.34;;;18.15;100.00
18436;BME280;9346;52.006;4.720;2023-07-29T03:17:25;100557.41;;;18.12;100.00
18436;BME280;9346;52.006;4.720;2023-07-29T03:19:52;100556.94;;;18.10;100.00
18436;BME280;9346;52.006;4.720;2023-07-29T03:22:20;100557.25;;;18.08;100.00
18436;BME280;9346;52.006;4.720;2023-07-29T03:24:47;100565.94;;;18.07;100.00
18436;BME280;9346;52.006;4.720;2023-07-29T03:27:14;100571.84;;;18.05;100.00
18436;BME280;9346;52.006;4.720;2023-07-29T03:29:42;100561.03;;;18.04;100.00
18436;BME280;9346;52.006;4.720;2023-07-29T03:32:08;100570.88;;;18.01;100.00
18436;BME280;9346;52.006;4.720;2023-07-29T03:34:35;100560.06;;;18.00;100.00
18436;BME280;9346;52.006;4.720;2023-07-29T03:37:04;100570.03;;;18.01;100.00
18436;BME280;9346;52.006;4.720;2023-07-29T03:39:32;100567.91;;;17.98;100.00
18436;BME280;9346;52.006;4.720;2023-07-29T03:41:59;100565.97;;;17.98;100.00
18436;BME280;9346;52.006;4.720;2023-07-29T03:44:26;100561.19;;;17.99;100.00
18436;BME280;9346;52.006;4.720;2023-07-29T03:46:53;100568.75;;;17.98;100.00
18436;BME280;9346;52.006;4.720;2023-07-29T03:49:20;100569.53;;;17.99;100.00
18436;BME280;9346;52.006;4.720;2023-07-29T03:51:47;100567.25;;;18.01;100.00
18436;BME280;9346;52.006;4.720;2023-07-29T03:54:14;100578.41;;;18.01;100.00
18436;BME280;9346;52.006;4.720;2023-07-29T03:56:43;100571.22;;;18.00;100.00
18436;BME280;9346;52.006;4.720;2023-07-29T03:59:10;100567.25;;;18.01;100.00
18436;BME280;9346;52.006;4.720;2023-07-29T04:01:37;100562.84;;;18.00;100.00
18436;BME280;9346;52.006;4.720;2023-07-29T04:04:04;100561.69;;;18.01;100.00
18436;BME280;9346;52.006;4.720;2023-07-29T04:06:31;100569.53;;;17.99;100.00
18436;BME280;9346;52.006;4.720;2023-07-29T04:08:58;100572.84;;;18.01;100.00
18436;BME280;9346;52.006;4.720;2023-07-29T04:11:25;100572.84;;;18.01;100.00
18436;BME280;9346;52.006;4.720;2023-07-29T04:13:54;100571.22;;;18.00;100.00
18436;BME280;9346;52.006;4.720;2023-07-29T04:16:21;100564.47;;;18.01;100.00
18436;BME280;9346;52.006;4.720;2023-07-29T04:18:48;100563.31;;;18.02;100.00
18436;BME280;9346;52.006;4.720;2023-07-29T04:21:15;100563.31;;;18.02;100.00
18436;BME280;9346;52.006;4.720;2023-07-29T04:23:42;100568.22;;;18.05;100.00
18436;BME280;9346;52.006;4.720;2023-07-29T04:26:09;100571.53;;;18.07;100.00
18436;BME280;9346;52.006;4.720;2023-07-29T04:28:36;100572.19;;;18.04;100.00
18436;BME280;9346;52.006;4.720;2023-07-29T04:31:05;100566.59;;;18.04;100.00
18436;BME280;9346;52.006;4.720;2023-07-29T04:33:32;100564.28;;;18.06;100.00
18436;BME280;9346;52.006;4.720;2023-07-29T04:35:59;100566.28;;;18.05;100.00
18436;BME280;9346;52.006;4.720;2023-07-29T04:38:30;100574.31;;;18.07;100.00
18436;BME280;9346;52.006;4.720;2023-07-29T04:40:58;100583.13;;;18.09;100.00
18436;BME280;9346;52.006;4.720;2023-07-29T04:43:27;100583.13;;;18.09;100.00
18436;BME280;9346;52.006;4.720;2023-07-29T04:45:55;100582.00;;;18.10;100.00
18436;BME280;9346;52.006;4.720;2023-07-29T04:48:23;100581.19;;;18.09;100.00
18436;BME280;9346;52.006;4.720;2023-07-29T04:50:50;100586.75;;;18.09;100.00
18436;BME280;9346;52.006;4.720;2023-07-29T04:53:17;100590.38;;;18.10;100.00
18436;BME280;9346;52.006;4.720;2023-07-29T04:55:45;100587.91;;;18.17;100.00
18436;BME280;9346;52.006;4.720;2023-07-29T04:58:12;100585.09;;;18.17;100.00
18436;BME280;9346;52.006;4.720;2023-07-29T05:00:39;100584.59;;;18.15;100.00
18436;BME280;9346;52.006;4.720;2023-07-29T05:03:05;100593.31;;;18.13;100.00
18436;BME280;9346;52.006;4.720;2023-07-29T05:05:35;100594.97;;;18.14;100.00
18436;BME280;9346;52.006;4.720;2023-07-29T05:08:02;100594.44;;;18.21;100.00
18436;BME280;9346;52.006;4.720;2023-07-29T05:10:29;100594.63;;;18.16;100.00
18436;BME280;9346;52.006;4.720;2023-07-29T05:12:56;100584.28;;;18.16;100.00
18436;BME280;9346;52.006;4.720;2023-07-29T05:15:23;100583.63;;;18.19;100.00
18436;BME280;9346;52.006;4.720;2023-07-29T05:17:50;100585.75;;;18.22;100.00
18436;BME280;9346;52.006;4.720;2023-07-29T05:20:17;100582.63;;;18.24;100.00
18436;BME280;9346;52.006;4.720;2023-07-29T05:22:46;100586.72;;;18.26;100.00
18436;BME280;9346;52.006;4.720;2023-07-29T05:25:13;100587.53;;;18.27;100.00
18436;BME280;9346;52.006;4.720;2023-07-29T05:27:40;100581.97;;;18.27;100.00
18436;BME280;9346;52.006;4.720;2023-07-29T05:30:08;100581.31;;;18.30;100.00
18436;BME280;9346;52.006;4.720;2023-07-29T05:32:35;100585.91;;;18.34;100.00
18436;BME280;9346;52.006;4.720;2023-07-29T05:35:02;100584.44;;;18.37;100.00
18436;BME280;9346;52.006;4.720;2023-07-29T05:37:29;100576.91;;;18.37;100.00
18436;BME280;9346;52.006;4.720;2023-07-29T05:39:58;100566.53;;;18.38;100.00
18436;BME280;9346;52.006;4.720;2023-07-29T05:42:25;100571.97;;;18.43;100.00
18436;BME280;9346;52.006;4.720;2023-07-29T05:44:52;100580.81;;;18.45;100.00
18436;BME280;9346;52.006;4.720;2023-07-29T05:47:19;100578.84;;;18.45;100.00
18436;BME280;9346;52.006;4.720;2023-07-29T05:49:45;100582.91;;;18.48;100.00
18436;BME280;9346;52.006;4.720;2023-07-29T05:52:12;100576.22;;;18.49;100.00
18436;BME280;9346;52.006;4.720;2023-07-29T05:54:39;100582.25;;;18.51;100.00
18436;BME280;9346;52.006;4.720;2023-07-29T05:57:11;100590.78;;;18.54;100.00
18436;BME280;9346;52.006;4.720;2023-07-29T05:59:38;100591.63;;;18.55;100.00
18436;BME280;9346;52.006;4.720;2023-07-29T06:02:06;100596.03;;;18.56;100.00
18436;BME280;9346;52.006;4.720;2023-07-29T06:04:32;100600.44;;;18.57;100.00
18436;BME280;9346;52.006;4.720;2023-07-29T06:06:59;100601.28;;;18.57;100.00
18436;BME280;9346;52.006;4.720;2023-07-29T06:09:27;100604.22;;;18.61;100.00
18436;BME280;9346;52.006;4.720;2023-07-29T06:11:54;100599.13;;;18.63;100.00
18436;BME280;9346;52.006;4.720;2023-07-29T06:14:23;100594.50;;;18.67;100.00
18436;BME280;9346;52.006;4.720;2023-07-29T06:16:50;100600.59;;;18.69;100.00
18436;BME280;9346;52.006;4.720;2023-07-29T06:19:18;100607.13;;;18.73;100.00
18436;BME280;9346;52.006;4.720;2023-07-29T06:21:44;100597.63;;;18.74;100.00
18436;BME280;9346;52.006;4.720;2023-07-29T06:24:12;100589.25;;;18.74;100.00
18436;BME280;9346;52.006;4.720;2023-07-29T06:26:39;100593.81;;;18.78;100.00
18436;BME280;9346;52.006;4.720;2023-07-29T06:29:06;100590.53;;;18.76;100.00
18436;BME280;9346;52.006;4.720;2023-07-29T06:31:35;100599.06;;;18.80;100.00
18436;BME280;9346;52.006;4.720;2023-07-29T06:34:02;100595.09;;;18.89;100.00
18436;BME280;9346;52.006;4.720;2023-07-29T06:36:29;100599.16;;;18.92;100.00
18436;BME280;9346;52.006;4.720;2023-07-29T06:38:56;100607.53;;;18.92;100.00
18436;BME280;9346;52.006;4.720;2023-07-29T06:41:23;100600.00;;;18.92;100.00
18436;BME280;9346;52.006;4.720;2023-07-29T06:43:50;100608.50;;;18.96;100.00
18436;BME280;9346;52.006;4.720;2023-07-29T06:46:17;100601.13;;;19.00;100.00
18436;BME280;9346;52.006;4.720;2023-07-29T06:48:45;100598.13;;;19.05;100.00
18436;BME280;9346;52.006;4.720;2023-07-29T06:51:12;100603.66;;;19.13;100.00
18436;BME280;9346;52.006;4.720;2023-07-29T06:53:39;100606.88;;;19.24;100.00
18436;BME280;9346;52.006;4.720;2023-07-29T06:56:06;100609.53;;;19.29;100.00
18436;BME280;9346;52.006;4.720;2023-07-29T06:58:34;100601.44;;;19.36;100.00
18436;BME280;9346;52.006;4.720;2023-07-29T07:01:01;100599.41;;;19.45;100.00
18436;BME280;9346;52.006;4.720;2023-07-29T07:03:28;100597.22;;;19.50;100.00
18436;BME280;9346;52.006;4.720;2023-07-29T07:05:57;100593.88;;;19.57;100.00
18436;BME280;9346;52.006;4.720;2023-07-29T07:08:24;100594.19;;;19.64;100.00
18436;BME280;9346;52.006;4.720;2023-07-29T07:10:51;100592.94;;;19.73;100.00
18436;BME280;9346;52.006;4.720;2023-07-29T07:13:18;100588.19;;;19.74;100.00
18436;BME280;9346;52.006;4.720;2023-07-29T07:15:45;100586.41;;;19.69;100.00
18436;BME280;9346;52.006;4.720;2023-07-29T07:18:12;100590.69;;;19.67;100.00
18436;BME280;9346;52.006;4.720;2023-07-29T07:20:39;100597.59;;;19.69;100.00
18436;BME280;9346;52.006;4.720;2023-07-29T07:23:07;100601.25;;;19.82;100.00
18436;BME280;9346;52.006;4.720;2023-07-29T07:25:37;100594.31;;;19.88;100.00
18436;BME280;9346;52.006;4.720;2023-07-29T07:28:04;100589.19;;;19.90;100.00
18436;BME280;9346;52.006;4.720;2023-07-29T07:30:31;100595.47;;;19.87;100.00
18436;BME280;9346;52.006;4.720;2023-07-29T07:32:58;100601.75;;;19.84;100.00
18436;BME280;9346;52.006;4.720;2023-07-29T07:35:25;100599.91;;;19.88;100.00
18436;BME280;9346;52.006;4.720;2023-07-29T07:37:52;100596.75;;;19.89;100.00
18436;BME280;9346;52.006;4.720;2023-07-29T07:40:21;100606.44;;;19.92;100.00
18436;BME280;9346;52.006;4.720;2023-07-29T07:42:48;100614.13;;;19.95;100.00
18436;BME280;9346;52.006;4.720;2023-07-29T07:45:15;100599.81;;;19.97;100.00
18436;BME280;9346;52.006;4.720;2023-07-29T07:47:43;100603.09;;;19.99;100.00
18436;BME280;9346;52.006;4.720;2023-07-29T07:50:10;100599.47;;;19.98;100.00
18436;BME280;9346;52.006;4.720;2023-07-29T07:52:37;100606.69;;;19.99;100.00
18436;BME280;9346;52.006;4.720;2023-07-29T07:55:04;100608.53;;;19.95;100.00
18436;BME280;9346;52.006;4.720;2023-07-29T07:57:33;100604.13;;;19.94;100.00
18436;BME280;9346;52.006;4.720;2023-07-29T08:00:00;100612.97;;;19.96;100.00
18436;BME280;9346;52.006;4.720;2023-07-29T08:02:27;100618.09;;;19.94;100.00
18436;BME280;9346;52.006;4.720;2023-07-29T08:04:53;100620.06;;;19.93;100.00
18436;BME280;9346;52.006;4.720;2023-07-29T08:07:20;100621.56;;;19.91;100.00
18436;BME280;9346;52.006;4.720;2023-07-29T08:09:47;100623.19;;;19.92;100.00
18436;BME280;9346;52.006;4.720;2023-07-29T08:12:14;100628.25;;;19.99;100.00
18436;BME280;9346;52.006;4.720;2023-07-29T08:14:43;100621.41;;;20.08;100.00
18436;BME280;9346;52.006;4.720;2023-07-29T08:17:10;100625.69;;;20.14;100.00
18436;BME280;9346;52.006;4.720;2023-07-29T08:19:37;100619.88;;;20.19;100.00
18436;BME280;9346;52.006;4.720;2023-07-29T08:22:04;100622.00;;;20.22;100.00
18436;BME280;9346;52.006;4.720;2023-07-29T08:24:32;100615.56;;;20.22;100.00
18436;BME280;9346;52.006;4.720;2023-07-29T08:26:59;100617.59;;;20.33;100.00
18436;BME280;9346;52.006;4.720;2023-07-29T08:29:26;100622.63;;;20.40;100.00
18436;BME280;9346;52.006;4.720;2023-07-29T08:31:54;100636.59;;;20.40;100.00
18436;BME280;9346;52.006;4.720;2023-07-29T08:34:22;100627.06;;;20.41;100.00
18436;BME280;9346;52.006;4.720;2023-07-29T08:36:49;100618.53;;;20.37;100.00
18436;BME280;9346;52.006;4.720;2023-07-29T08:39:15;100617.38;;;20.38;100.00
18436;BME280;9346;52.006;4.720;2023-07-29T08:41:47;100614.13;;;20.36;100.00
18436;BME280;9346;52.006;4.720;2023-07-29T08:44:18;100620.16;;;20.38;100.00
18436;BME280;9346;52.006;4.720;2023-07-29T08:46:47;100628.22;;;20.40;100.00
18436;BME280;9346;52.006;4.720;2023-07-29T08:49:18;100634.63;;;20.40;100.00
18436;BME280;9346;52.006;4.720;2023-07-29T08:51:46;100633.00;;;20.39;100.00
18436;BME280;9346;52.006;4.720;2023-07-29T08:54:14;100631.72;;;20.37;100.00
18436;BME280;9346;52.006;4.720;2023-07-29T08:56:41;100645.22;;;20.35;100.00
18436;BME280;9346;52.006;4.720;2023-07-29T08:59:09;100636.59;;;20.28;100.00
18436;BME280;9346;52.006;4.720;2023-07-29T09:01:38;100640.84;;;20.25;100.00
18436;BME280;9346;52.006;4.720;2023-07-29T09:04:05;100643.66;;;20.25;100.00
18436;BME280;9346;52.006;4.720;2023-07-29T09:06:34;100647.09;;;20.31;100.00
18436;BME280;9346;52.006;4.720;2023-07-29T09:09:03;100642.78;;;20.33;100.00
18436;BME280;9346;52.006;4.720;2023-07-29T09:11:31;100640.13;;;20.37;100.00
18436;BME280;9346;52.006;4.720;2023-07-29T09:13:59;100645.72;;;20.37;100.00
18436;BME280;9346;52.006;4.720;2023-07-29T09:16:26;100641.75;;;20.38;100.00
18436;BME280;9346;52.006;4.720;2023-07-29T09:18:53;100645.00;;;20.40;100.00
18436;BME280;9346;52.006;4.720;2023-07-29T09:21:23;100644.66;;;20.41;100.00
18436;BME280;9346;52.006;4.720;2023-07-29T09:23:53;100647.94;;;20.43;100.00
18436;BME280;9346;52.006;4.720;2023-07-29T09:26:25;100650.72;;;20.43;100.00
18436;BME280;9346;52.006;4.720;2023-07-29T09:28:53;100639.88;;;20.42;100.00
18436;BME280;9346;52.006;4.720;2023-07-29T09:31:22;100641.84;;;20.41;100.00
18436;BME280;9346;52.006;4.720;2023-07-29T09:33:49;100636.25;;;20.41;100.00
18436;BME280;9346;52.006;4.720;2023-07-29T09:36:16;100645.81;;;20.40;100.00
18436;BME280;9346;52.006;4.720;2023-07-29T09:38:44;100649.44;;;20.41;100.00
18436;BME280;9346;52.006;4.720;2023-07-29T09:41:15;100634.63;;;20.40;100.00
18436;BME280;9346;52.006;4.720;2023-07-29T09:43:42;100643.50;;;20.42;100.00
18436;BME280;9346;52.006;4.720;2023-07-29T09:46:09;100642.94;;;20.49;100.00
18436;BME280;9346;52.006;4.720;2023-07-29T09:48:37;100650.19;;;20.50;100.00
18436;BME280;9346;52.006;4.720;2023-07-29T09:51:10;100648.66;;;20.52;100.00
18436;BME280;9346;52.006;4.720;2023-07-29T09:53:40;100651.94;;;20.54;100.00
18436;BME280;9346;52.006;4.720;2023-07-29T09:56:08;100650.28;;;20.53;100.00
18436;BME280;9346;52.006;4.720;2023-07-29T09:58:37;100653.78;;;20.50;100.00
18436;BME280;9346;52.006;4.720;2023-07-29T10:01:05;100646.06;;;20.47;100.00
18436;BME280;9346;52.006;4.720;2023-07-29T10:03:33;100641.16;;;20.44;100.00
18436;BME280;9346;52.006;4.720;2023-07-29T10:06:02;100645.34;;;20.38;100.00
18436;BME280;9346;52.006;4.720;2023-07-29T10:08:29;100639.75;;;20.38;100.00
18436;BME280;9346;52.006;4.720;2023-07-29T10:10:59;100652.94;;;20.38;100.00
18436;BME280;9346;52.006;4.720;2023-07-29T10:13:26;100658.78;;;20.45;100.00
18436;BME280;9346;52.006;4.720;2023-07-29T10:15:56;100656.47;;;20.47;100.00
18436;BME280;9346;52.006;4.720;2023-07-29T10:18:24;100658.78;;;20.45;100.00
18436;BME280;9346;52.006;4.720;2023-07-29T10:20:52;100662.41;;;20.45;100.00
18436;BME280;9346;52.006;4.720;2023-07-29T10:23:21;100664.72;;;20.43;100.00
18436;BME280;9346;52.006;4.720;2023-07-29T10:25:50;100670.06;;;20.36;100.00
18436;BME280;9346;52.006;4.720;2023-07-29T10:28:24;100675.16;;;20.34;100.00
18436;BME280;9346;52.006;4.720;2023-07-29T10:30:52;100665.84;;;20.30;100.00
18436;BME280;9346;52.006;4.720;2023-07-29T10:33:21;100668.03;;;20.25;100.00
18436;BME280;9346;52.006;4.720;2023-07-29T10:35:49;100666.25;;;20.20;100.00
18436;BME280;9346;52.006;4.720;2023-07-29T10:38:17;100673.56;;;20.13;100.00
18436;BME280;9346;52.006;4.720;2023-07-29T10:40:46;100666.63;;;20.10;100.00
18436;BME280;9346;52.006;4.720;2023-07-29T10:43:19;100671.75;;;20.08;100.00
18436;BME280;9346;52.006;4.720;2023-07-29T10:45:46;100666.03;;;20.05;100.00
18436;BME280;9346;52.006;4.720;2023-07-29T10:48:41;100670.31;;;20.02;100.00
18436;BME280;9346;52.006;4.720;2023-07-29T10:51:36;100674.28;;;20.01;100.00
18436;BME280;9346;52.006;4.720;2023-07-29T10:54:09;100681.03;;;20.00;100.00
18436;BME280;9346;52.006;4.720;2023-07-29T10:56:40;100676.91;;;19.98;100.00
18436;BME280;9346;52.006;4.720;2023-07-29T10:59:31;100675.44;;;20.00;100.00
18436;BME280;9346;52.006;4.720;2023-07-29T11:02:00;100673.09;;;20.02;100.00
18436;BME280;9346;52.006;4.720;2023-07-29T11:04:30;100678.69;;;20.02;100.00
18436;BME280;9346;52.006;4.720;2023-07-29T11:07:26;100674.75;;;20.03;100.00
18436;BME280;9346;52.006;4.720;2023-07-29T11:09:58;100680.00;;;20.05;100.00
18436;BME280;9346;52.006;4.720;2023-07-29T11:12:43;100681.31;;;20.07;100.00
18436;BME280;9346;52.006;4.720;2023-07-29T11:15:19;100678.16;;;20.09;100.00
18436;BME280;9346;52.006;4.720;2023-07-29T11:17:48;100680.31;;;20.12;100.00
18436;BME280;9346;52.006;4.720;2023-07-29T11:20:18;100673.22;;;20.14;100.00
18436;BME280;9346;52.006;4.720;2023-07-29T11:22:45;100675.13;;;20.22;100.00
18436;BME280;9346;52.006;4.720;2023-07-29T11:25:14;100680.31;;;20.32;100.00
18436;BME280;9346;52.006;4.720;2023-07-29T11:27:42;100673.69;;;20.37;100.00
18436;BME280;9346;52.006;4.720;2023-07-29T11:30:10;100667.38;;;20.40;100.00
18436;BME280;9346;52.006;4.720;2023-07-29T11:32:39;100667.19;;;20.45;100.00
18436;BME280;9346;52.006;4.720;2023-07-29T11:35:08;100676.06;;;20.59;100.00
18436;BME280;9346;52.006;4.720;2023-07-29T11:37:38;100680.88;;;20.70;100.00
18436;BME280;9346;52.006;4.720;2023-07-29T11:40:06;100671.13;;;20.76;100.00
18436;BME280;9346;52.006;4.720;2023-07-29T11:42:36;100669.19;;;20.89;100.00
18436;BME280;9346;52.006;4.720;2023-07-29T11:45:04;100671.09;;;20.97;100.00
18436;BME280;9346;52.006;4.720;2023-07-29T11:47:32;100669.47;;;20.96;100.00
18436;BME280;9346;52.006;4.720;2023-07-29T11:50:03;100675.41;;;20.94;100.00
18436;BME280;9346;52.006;4.720;2023-07-29T11:52:31;100659.47;;;20.86;100.00
18436;BME280;9346;52.006;4.720;2023-07-29T11:55:02;100673.25;;;20.91;100.00
18436;BME280;9346;52.006;4.720;2023-07-29T11:57:29;100668.28;;;20.97;100.00
18436;BME280;9346;52.006;4.720;2023-07-29T11:59:57;100665.97;;;20.99;100.00
18436;BME280;9346;52.006;4.720;2023-07-29T12:02:24;100668.06;;;21.02;100.00
18436;BME280;9346;52.006;4.720;2023-07-29T12:04:52;100668.66;;;21.07;100.00
18436;BME280;9346;52.006;4.720;2023-07-29T12:07:19;100667.47;;;21.08;100.00
18436;BME280;9346;52.006;4.720;2023-07-29T12:09:47;100662.72;;;21.09;100.00
18436;BME280;9346;52.006;4.720;2023-07-29T12:12:16;100656.41;;;21.12;100.00
18436;BME280;9346;52.006;4.720;2023-07-29T12:14:46;100653.72;;;21.15;100.00
18436;BME280;9346;52.006;4.720;2023-07-29T12:17:14;100643.13;;;21.21;100.00
18436;BME280;9346;52.006;4.720;2023-07-29T12:19:42;100634.81;;;21.24;100.00
18436;BME280;9346;52.006;4.720;2023-07-29T12:22:10;100637.97;;;21.35;100.00
18436;BME280;9346;52.006;4.720;2023-07-29T12:24:39;100641.84;;;21.54;100.00
18436;BME280;9346;52.006;4.720;2023-07-29T12:27:10;100647.03;;;21.68;100.00
18436;BME280;9346;52.006;4.720;2023-07-29T12:29:43;100632.13;;;21.76;100.00
18436;BME280;9346;52.006;4.720;2023-07-29T12:32:14;100633.03;;;21.80;100.00
18436;BME280;9346;52.006;4.720;2023-07-29T12:34:40;100638.78;;;21.83;100.00
18436;BME280;9346;52.006;4.720;2023-07-29T12:37:08;100636.53;;;21.89;100.00
18436;BME280;9346;52.006;4.720;2023-07-29T12:39:40;100638.84;;;21.99;100.00
18436;BME280;9346;52.006;4.720;2023-07-29T12:42:07;100632.97;;;22.04;100.00
18436;BME280;9346;52.006;4.720;2023-07-29T12:44:36;100635.66;;;22.13;100.00
18436;BME280;9346;52.006;4.720;2023-07-29T12:47:06;100635.16;;;22.23;100.00
18436;BME280;9346;52.006;4.720;2023-07-29T12:49:34;100633.72;;;22.29;100.00
18436;BME280;9346;52.006;4.720;2023-07-29T12:52:01;100634.16;;;22.31;100.00
18436;BME280;9346;52.006;4.720;2023-07-29T12:54:28;100630.63;;;22.34;100.00
18436;BME280;9346;52.006;4.720;2023-07-29T12:56:55;100628.09;;;22.29;100.00